sensor_id;sensor_type;location;lat;lon;timestamp;P1;durP1;ratioP1;P2;durP2;ratioP2
41229;SDS011;26964;50.428;19.218;2024-03-23T00:53:44;45.7;;;28.3;;
41229;SDS011;26964;50.428;19.218;2024-03-23T00:54:44;42.5;;;26.3;;
41229;SDS011;26964;50.428;19.218;2024-03-23T00:55:44;39.6;;;27.0;;
41229;SDS011;26964;50.428;19.218;2024-03-23T00:56:44;43.7;;;27.3;;
41229;SDS011;26964;50.428;19.218;2024-03-23T00:57:44;42.0;;;27.5;;
41229;SDS011;26964;50.428;19.218;2024-03-23T00:58:44;41.1;;;27.2;;
41229;SDS011;26964;50.428;19.218;2024-03-23T00:59:44;43.5;;;27.1;;
41229;SDS011;26964;50.428;19.218;2024-03-23T01:00:44;46.6;;;28.1;;
41229;SDS011;26964;50.428;19.218;2024-03-23T01:01:44;42.5;;;27.7;;
41229;SDS011;26964;50.428;19.218;2024-03-23T01:02:44;46.4;;;28.5;;
41229;SDS011;26964;50.428;19.218;2024-03-23T01:03:44;45.7;;;27.7;;
41229;SDS011;26964;50.428;19.218;2024-03-23T01:04:44;44.1;;;27.5;;
41229;SDS011;26964;50.428;19.218;2024-03-23T01:05:44;44.7;;;27.7;;
41229;SDS011;26964;50.428;19.218;2024-03-23T01:06:44;40.9;;;26.3;;
41229;SDS011;26964;50.428;19.218;2024-03-23T01:07:44;41.2;;;26.5;;
41229;SDS011;26964;50.428;19.218;2024-03-23T01:08:44;38.7;;;24.9;;
41229;SDS011;26964;50.428;19.218;2024-03-23T01:09:46;40.3;;;25.0;;
41229;SDS011;26964;50.428;19.218;2024-03-23T01:11:44;41.9;;;26.4;;
41229;SDS011;26964;50.428;19.218;2024-03-23T01:12:44;41.6;;;26.6;;
41229;SDS011;26964;50.428;19.218;2024-03-23T01:13:44;36.5;;;25.1;;
41229;SDS011;26964;50.428;19.218;2024-03-23T01:14:44;39.6;;;27.0;;
41229;SDS011;26964;50.428;19.218;2024-03-23T01:16:44;41.8;;;26.8;;
41229;SDS011;26964;50.428;19.218;2024-03-23T01:17:44;37.8;;;25.5;;
41229;SDS011;26964;50.428;19.218;2024-03-23T01:18:44;42.1;;;26.5;;
41229;SDS011;26964;50.428;19.218;2024-03-23T01:19:44;42.3;;;25.9;;
41229;SDS011;26964;50.428;19.218;2024-03-23T01:20:44;42.8;;;26.8;;
41229;SDS011;26964;50.428;19.218;2024-03-23T01:21:44;45.3;;;29.2;;
41229;SDS011;26964;50.428;19.218;2024-03-23T01:22:44;46.3;;;28.5;;
41229;SDS011;26964;50.428;19.218;2024-03-23T01:23:44;43.5;;;27.8;;
41229;SDS011;26964;50.428;19.218;2024-03-23T01:24:44;38.9;;;26.7;;
41229;SDS011;26964;50.428;19.218;2024-03-23T01:26:44;52.2;;;34.6;;
41229;SDS011;26964;50.428;19.218;2024-03-23T01:27:44;53.3;;;34.3;;
41229;SDS011;26964;50.428;19.218;2024-03-23T01:28:44;57.1;;;33.8;;
41229;SDS011;26964;50.428;19.218;2024-03-23T01:29:44;46.4;;;31.5;;
41229;SDS011;26964;50.428;19.218;2024-03-23T01:30:47;48.4;;;31.9;;
41229;SDS011;26964;50.428;19.218;2024-03-23T01:31:44;51.7;;;32.3;;
41229;SDS011;26964;50.428;19.218;2024-03-23T01:32:44;54.1;;;31.8;;
41229;SDS011;26964;50.428;19.218;2024-03-23T01:33:44;53.9;;;33.3;;
41229;SDS011;26964;50.428;19.218;2024-03-23T01:34:44;59.4;;;33.8;;
41229;SDS011;26964;50.428;19.218;2024-03-23T01:35:44;57.1;;;35.9;;
41229;SDS011;26964;50.428;19.218;2024-03-23T01:36:44;52.7;;;32.4;;
41229;SDS011;26964;50.428;19.218;2024-03-23T01:37:44;59.7;;;35.0;;
41229;SDS011;26964;50.428;19.218;2024-03-23T01:38:44;57.7;;;34.1;;
41229;SDS011;26964;50.428;19.218;2024-03-23T01:39:44;54.2;;;32.2;;
41229;SDS011;26964;50.428;19.218;2024-03-23T01:40:44;54.1;;;34.9;;
41229;SDS011;26964;50.428;19.218;2024-03-23T01:41:44;58.6;;;34.2;;
41229;SDS011;26964;50.428;19.218;2024-03-23T01:43:44;61.4;;;37.0;;
41229;SDS011;26964;50.428;19.218;2024-03-23T01:44:44;53.6;;;32.4;;
41229;SDS011;26964;50.428;19.218;2024-03-23T01:45:44;45.2;;;30.0;;
41229;SDS011;26964;50.428;19.218;2024-03-23T01:46:44;46.9;;;29.1;;
41229;SDS011;26964;50.428;19.218;2024-03-23T01:47:44;54.3;;;33.1;;
41229;SDS011;26964;50.428;19.218;2024-03-23T01:48:44;49.4;;;30.4;;
41229;SDS011;26964;50.428;19.218;2024-03-23T01:49:44;52.8;;;31.5;;
41229;SDS011;26964;50.428;19.218;2024-03-23T01:50:44;48.0;;;29.7;;
41229;SDS011;26964;50.428;19.218;2024-03-23T01:51:47;50.0;;;30.3;;
41229;SDS011;26964;50.428;19.218;2024-03-23T01:52:44;50.9;;;30.0;;
41229;SDS011;26964;50.428;19.218;2024-03-23T01:53:44;48.1;;;30.4;;
41229;SDS011;26964;50.428;19.218;2024-03-23T01:54:44;48.9;;;30.4;;
41229;SDS011;26964;50.428;19.218;2024-03-23T01:55:44;46.7;;;29.7;;
41229;SDS011;26964;50.428;19.218;2024-03-23T01:56:44;49.2;;;29.9;;
41229;SDS011;26964;50.428;19.218;2024-03-23T01:57:44;49.7;;;29.3;;
41229;SDS011;26964;50.428;19.218;2024-03-23T01:58:44;49.9;;;30.8;;
41229;SDS011;26964;50.428;19.218;2024-03-23T01:59:44;47.0;;;28.9;;
41229;SDS011;26964;50.428;19.218;2024-03-23T02:00:44;48.8;;;30.4;;
41229;SDS011;26964;50.428;19.218;2024-03-23T02:01:44;50.8;;;30.6;;
41229;SDS011;26964;50.428;19.218;2024-03-23T02:02:44;49.5;;;31.5;;
41229;SDS011;26964;50.428;19.218;2024-03-23T02:03:44;50.3;;;30.7;;
41229;SDS011;26964;50.428;19.218;2024-03-23T02:04:44;51.0;;;31.1;;
41229;SDS011;26964;50.428;19.218;2024-03-23T02:05:44;55.7;;;32.6;;
41229;SDS011;26964;50.428;19.218;2024-03-23T02:06:44;48.1;;;30.4;;
41229;SDS011;26964;50.428;19.218;2024-03-23T02:07:44;51.7;;;31.0;;
41229;SDS011;26964;50.428;19.218;2024-03-23T02:08:44;52.1;;;31.8;;
41229;SDS011;26964;50.428;19.218;2024-03-23T02:09:44;49.8;;;31.8;;
41229;SDS011;26964;50.428;19.218;2024-03-23T02:10:44;49.0;;;30.1;;
41229;SDS011;26964;50.428;19.218;2024-03-23T02:11:45;49.4;;;30.9;;
41229;SDS011;26964;50.428;19.218;2024-03-23T02:13:44;50.8;;;31.0;;
41229;SDS011;26964;50.428;19.218;2024-03-23T02:14:44;50.6;;;32.2;;
41229;SDS011;26964;50.428;19.218;2024-03-23T02:15:44;49.7;;;32.1;;
41229;SDS011;26964;50.428;19.218;2024-03-23T02:16:44;49.6;;;30.8;;
41229;SDS011;26964;50.428;19.218;2024-03-23T02:17:44;47.1;;;30.0;;
41229;SDS011;26964;50.428;19.218;2024-03-23T02:18:44;48.0;;;31.1;;
41229;SDS011;26964;50.428;19.218;2024-03-23T02:19:44;51.1;;;30.4;;
41229;SDS011;26964;50.428;19.218;2024-03-23T02:20:44;47.7;;;30.9;;
41229;SDS011;26964;50.428;19.218;2024-03-23T02:21:44;49.4;;;30.2;;
41229;SDS011;26964;50.428;19.218;2024-03-23T02:22:44;51.6;;;30.6;;
41229;SDS011;26964;50.428;19.218;2024-03-23T02:23:44;50.5;;;30.6;;
41229;SDS011;26964;50.428;19.218;2024-03-23T02:24:44;49.2;;;30.6;;
41229;SDS011;26964;50.428;19.218;2024-03-23T02:25:44;48.6;;;30.4;;
41229;SDS011;26964;50.428;19.218;2024-03-23T02:26:44;53.0;;;30.6;;
41229;SDS011;26964;50.428;19.218;2024-03-23T02:27:44;53.1;;;30.9;;
41229;SDS011;26964;50.428;19.218;2024-03-23T02:28:44;52.2;;;31.2;;
41229;SDS011;26964;50.428;19.218;2024-03-23T02:29:44;48.3;;;30.9;;
41229;SDS011;26964;50.428;19.218;2024-03-23T02:30:44;49.9;;;30.8;;
41229;SDS011;26964;50.428;19.218;2024-03-23T02:31:44;51.4;;;32.4;;
41229;SDS011;26964;50.428;19.218;2024-03-23T02:32:45;46.1;;;30.8;;
41229;SDS011;26964;50.428;19.218;2024-03-23T02:33:44;50.4;;;30.6;;
41229;SDS011;26964;50.428;19.218;2024-03-23T02:34:44;51.7;;;32.0;;
41229;SDS011;26964;50.428;19.218;2024-03-23T02:35:44;52.2;;;31.9;;
41229;SDS011;26964;50.428;19.218;2024-03-23T02:36:44;51.1;;;31.3;;
41229;SDS011;26964;50.428;19.218;2024-03-23T02:37:45;47.0;;;30.6;;
41229;SDS011;26964;50.428;19.218;2024-03-23T02:38:44;53.2;;;29.8;;
41229;SDS011;26964;50.428;19.218;2024-03-23T02:39:44;52.3;;;31.8;;
41229;SDS011;26964;50.428;19.218;2024-03-23T02:40:44;49.6;;;31.0;;
41229;SDS011;26964;50.428;19.218;2024-03-23T02:41:44;48.6;;;31.1;;
41229;SDS011;26964;50.428;19.218;2024-03-23T02:42:44;50.4;;;31.4;;
41229;SDS011;26964;50.428;19.218;2024-03-23T02:43:44;46.6;;;30.9;;
41229;SDS011;26964;50.428;19.218;2024-03-23T02:44:44;52.3;;;32.8;;
41229;SDS011;26964;50.428;19.218;2024-03-23T02:45:44;48.3;;;30.0;;
41229;SDS011;26964;50.428;19.218;2024-03-23T02:46:44;53.9;;;32.7;;
41229;SDS011;26964;50.428;19.218;2024-03-23T02:47:44;46.2;;;30.2;;
41229;SDS011;26964;50.428;19.218;2024-03-23T02:48:44;47.7;;;30.2;;
41229;SDS011;26964;50.428;19.218;2024-03-23T02:49:44;46.5;;;30.2;;
41229;SDS011;26964;50.428;19.218;2024-03-23T02:50:44;49.3;;;31.8;;
41229;SDS011;26964;50.428;19.218;2024-03-23T02:51:44;48.1;;;30.1;;
41229;SDS011;26964;50.428;19.218;2024-03-23T02:52:44;47.6;;;31.3;;
41229;SDS011;26964;50.428;19.218;2024-03-23T02:53:45;47.8;;;30.8;;
41229;SDS011;26964;50.428;19.218;2024-03-23T02:54:44;44.6;;;30.4;;
41229;SDS011;26964;50.428;19.218;2024-03-23T02:55:44;49.4;;;31.5;;
41229;SDS011;26964;50.428;19.218;2024-03-23T02:56:44;50.0;;;31.9;;
41229;SDS011;26964;50.428;19.218;2024-03-23T02:57:44;47.4;;;30.7;;
41229;SDS011;26964;50.428;19.218;2024-03-23T02:58:44;50.9;;;32.9;;
41229;SDS011;26964;50.428;19.218;2024-03-23T02:59:44;50.8;;;32.9;;
41229;SDS011;26964;50.428;19.218;2024-03-23T03:00:44;52.6;;;34.0;;
41229;SDS011;26964;50.428;19.218;2024-03-23T03:01:44;50.9;;;32.3;;
41229;SDS011;26964;50.428;19.218;2024-03-23T03:02:44;51.7;;;32.4;;
41229;SDS011;26964;50.428;19.218;2024-03-23T03:03:44;54.2;;;33.2;;
41229;SDS011;26964;50.428;19.218;2024-03-23T03:04:44;56.1;;;32.4;;
41229;SDS011;26964;50.428;19.218;2024-03-23T03:05:44;46.4;;;29.7;;
41229;SDS011;26964;50.428;19.218;2024-03-23T03:06:46;48.6;;;31.4;;
41229;SDS011;26964;50.428;19.218;2024-03-23T03:07:44;48.2;;;31.7;;
41229;SDS011;26964;50.428;19.218;2024-03-23T03:08:44;51.3;;;31.0;;
41229;SDS011;26964;50.428;19.218;2024-03-23T03:09:44;52.5;;;33.5;;
41229;SDS011;26964;50.428;19.218;2024-03-23T03:10:44;47.3;;;31.1;;
41229;SDS011;26964;50.428;19.218;2024-03-23T03:11:44;51.7;;;33.2;;
41229;SDS011;26964;50.428;19.218;2024-03-23T03:12:44;52.4;;;31.5;;
41229;SDS011;26964;50.428;19.218;2024-03-23T03:13:44;53.4;;;32.4;;
41229;SDS011;26964;50.428;19.218;2024-03-23T03:14:45;58.3;;;34.5;;
41229;SDS011;26964;50.428;19.218;2024-03-23T03:15:44;49.0;;;31.5;;
41229;SDS011;26964;50.428;19.218;2024-03-23T03:16:44;50.9;;;32.1;;
41229;SDS011;26964;50.428;19.218;2024-03-23T03:17:44;54.3;;;33.7;;
41229;SDS011;26964;50.428;19.218;2024-03-23T03:18:44;54.7;;;33.9;;
41229;SDS011;26964;50.428;19.218;2024-03-23T03:19:44;56.1;;;34.6;;
41229;SDS011;26964;50.428;19.218;2024-03-23T03:20:44;51.1;;;33.0;;
41229;SDS011;26964;50.428;19.218;2024-03-23T03:21:44;50.1;;;33.0;;
41229;SDS011;26964;50.428;19.218;2024-03-23T03:22:44;51.3;;;33.3;;
41229;SDS011;26964;50.428;19.218;2024-03-23T03:23:44;46.6;;;31.5;;
41229;SDS011;26964;50.428;19.218;2024-03-23T03:24:44;55.7;;;33.7;;
41229;SDS011;26964;50.428;19.218;2024-03-23T03:25:44;50.7;;;32.9;;
41229;SDS011;26964;50.428;19.218;2024-03-23T03:26:44;52.2;;;33.2;;
41229;SDS011;26964;50.428;19.218;2024-03-23T03:27:44;53.4;;;34.1;;
41229;SDS011;26964;50.428;19.218;2024-03-23T03:28:44;54.5;;;34.9;;
41229;SDS011;26964;50.428;19.218;2024-03-23T03:29:44;54.1;;;34.3;;
41229;SDS011;26964;50.428;19.218;2024-03-23T03:30:44;53.1;;;34.4;;
41229;SDS011;26964;50.428;19.218;2024-03-23T03:31:44;57.0;;;34.8;;
41229;SDS011;26964;50.428;19.218;2024-03-23T03:32:44;55.9;;;34.5;;
41229;SDS011;26964;50.428;19.218;2024-03-23T03:33:44;51.5;;;33.8;;
41229;SDS011;26964;50.428;19.218;2024-03-23T03:34:44;54.6;;;34.7;;
41229;SDS011;26964;50.428;19.218;2024-03-23T03:35:45;54.8;;;34.8;;
41229;SDS011;26964;50.428;19.218;2024-03-23T03:36:44;55.8;;;35.0;;
41229;SDS011;26964;50.428;19.218;2024-03-23T03:37:44;52.2;;;34.0;;
41229;SDS011;26964;50.428;19.218;2024-03-23T03:38:44;60.0;;;36.2;;
41229;SDS011;26964;50.428;19.218;2024-03-23T03:39:44;53.4;;;33.1;;
41229;SDS011;26964;50.428;19.218;2024-03-23T03:40:44;55.8;;;34.6;;
41229;SDS011;26964;50.428;19.218;2024-03-23T03:41:44;53.2;;;34.2;;
41229;SDS011;26964;50.428;19.218;2024-03-23T03:42:44;51.8;;;34.2;;
41229;SDS011;26964;50.428;19.218;2024-03-23T03:43:44;48.6;;;32.5;;
41229;SDS011;26964;50.428;19.218;2024-03-23T03:44:45;55.2;;;35.6;;
41229;SDS011;26964;50.428;19.218;2024-03-23T03:46:44;56.4;;;34.4;;
41229;SDS011;26964;50.428;19.218;2024-03-23T03:47:46;53.1;;;34.3;;
41229;SDS011;26964;50.428;19.218;2024-03-23T03:48:44;55.1;;;36.3;;
41229;SDS011;26964;50.428;19.218;2024-03-23T03:49:44;62.4;;;36.2;;
41229;SDS011;26964;50.428;19.218;2024-03-23T03:50:44;57.7;;;36.9;;
41229;SDS011;26964;50.428;19.218;2024-03-23T03:51:45;60.4;;;35.7;;
41229;SDS011;26964;50.428;19.218;2024-03-23T03:52:45;54.3;;;34.3;;
41229;SDS011;26964;50.428;19.218;2024-03-23T03:53:44;56.6;;;35.0;;
41229;SDS011;26964;50.428;19.218;2024-03-23T03:54:44;57.6;;;36.0;;
41229;SDS011;26964;50.428;19.218;2024-03-23T03:55:46;59.3;;;35.0;;
41229;SDS011;26964;50.428;19.218;2024-03-23T03:56:44;57.3;;;35.3;;
41229;SDS011;26964;50.428;19.218;2024-03-23T03:57:44;58.2;;;36.2;;
41229;SDS011;26964;50.428;19.218;2024-03-23T03:58:44;55.6;;;35.3;;
41229;SDS011;26964;50.428;19.218;2024-03-23T03:59:44;53.5;;;35.1;;
41229;SDS011;26964;50.428;19.218;2024-03-23T04:00:44;57.8;;;36.0;;
41229;SDS011;26964;50.428;19.218;2024-03-23T04:01:44;57.3;;;36.4;;
41229;SDS011;26964;50.428;19.218;2024-03-23T04:02:44;59.5;;;35.6;;
41229;SDS011;26964;50.428;19.218;2024-03-23T04:03:44;52.6;;;34.8;;
41229;SDS011;26964;50.428;19.218;2024-03-23T04:04:44;58.3;;;36.5;;
41229;SDS011;26964;50.428;19.218;2024-03-23T04:06:44;51.5;;;34.5;;
41229;SDS011;26964;50.428;19.218;2024-03-23T04:07:44;55.1;;;35.7;;
41229;SDS011;26964;50.428;19.218;2024-03-23T04:08:44;52.6;;;33.9;;
41229;SDS011;26964;50.428;19.218;2024-03-23T04:09:44;56.7;;;35.2;;
41229;SDS011;26964;50.428;19.218;2024-03-23T04:10:44;61.0;;;36.5;;
41229;SDS011;26964;50.428;19.218;2024-03-23T04:11:44;56.3;;;37.4;;
41229;SDS011;26964;50.428;19.218;2024-03-23T04:12:44;58.6;;;35.5;;
41229;SDS011;26964;50.428;19.218;2024-03-23T04:13:44;57.8;;;34.3;;
41229;SDS011;26964;50.428;19.218;2024-03-23T04:14:44;54.6;;;35.0;;
41229;SDS011;26964;50.428;19.218;2024-03-23T04:15:44;50.7;;;32.5;;
41229;SDS011;26964;50.428;19.218;2024-03-23T04:16:45;52.2;;;33.6;;
41229;SDS011;26964;50.428;19.218;2024-03-23T04:17:44;51.5;;;35.0;;
41229;SDS011;26964;50.428;19.218;2024-03-23T04:18:44;53.5;;;34.2;;
41229;SDS011;26964;50.428;19.218;2024-03-23T04:19:44;53.9;;;35.7;;
41229;SDS011;26964;50.428;19.218;2024-03-23T04:20:44;51.7;;;34.1;;
41229;SDS011;26964;50.428;19.218;2024-03-23T04:21:44;52.2;;;33.9;;
41229;SDS011;26964;50.428;19.218;2024-03-23T04:22:44;49.1;;;32.0;;
41229;SDS011;26964;50.428;19.218;2024-03-23T04:23:44;49.2;;;31.9;;
41229;SDS011;26964;50.428;19.218;2024-03-23T04:24:44;52.1;;;33.0;;
41229;SDS011;26964;50.428;19.218;2024-03-23T04:25:44;53.8;;;33.6;;
41229;SDS011;26964;50.428;19.218;2024-03-23T04:26:44;57.0;;;35.0;;
41229;SDS011;26964;50.428;19.218;2024-03-23T04:27:44;56.0;;;34.1;;
41229;SDS011;26964;50.428;19.218;2024-03-23T04:28:44;54.7;;;34.8;;
41229;SDS011;26964;50.428;19.218;2024-03-23T04:30:44;52.0;;;34.1;;
41229;SDS011;26964;50.428;19.218;2024-03-23T04:31:44;50.3;;;33.1;;
41229;SDS011;26964;50.428;19.218;2024-03-23T04:32:44;52.2;;;33.4;;
41229;SDS011;26964;50.428;19.218;2024-03-23T04:33:44;53.8;;;34.8;;
41229;SDS011;26964;50.428;19.218;2024-03-23T04:34:44;54.2;;;33.8;;
41229;SDS011;26964;50.428;19.218;2024-03-23T04:35:44;52.2;;;34.4;;
41229;SDS011;26964;50.428;19.218;2024-03-23T04:36:44;51.9;;;33.5;;
41229;SDS011;26964;50.428;19.218;2024-03-23T04:37:45;53.2;;;34.5;;
41229;SDS011;26964;50.428;19.218;2024-03-23T04:39:44;58.8;;;37.7;;
41229;SDS011;26964;50.428;19.218;2024-03-23T04:40:44;64.9;;;38.5;;
41229;SDS011;26964;50.428;19.218;2024-03-23T04:41:44;55.2;;;35.5;;
41229;SDS011;26964;50.428;19.218;2024-03-23T04:42:44;54.9;;;35.8;;
41229;SDS011;26964;50.428;19.218;2024-03-23T04:43:44;57.0;;;35.1;;
41229;SDS011;26964;50.428;19.218;2024-03-23T04:44:44;48.9;;;33.5;;
41229;SDS011;26964;50.428;19.218;2024-03-23T04:45:44;51.7;;;34.2;;
41229;SDS011;26964;50.428;19.218;2024-03-23T04:46:44;54.4;;;34.7;;
41229;SDS011;26964;50.428;19.218;2024-03-23T04:47:44;50.9;;;33.1;;
41229;SDS011;26964;50.428;19.218;2024-03-23T04:48:44;52.8;;;33.1;;
41229;SDS011;26964;50.428;19.218;2024-03-23T04:49:44;51.0;;;33.0;;
41229;SDS011;26964;50.428;19.218;2024-03-23T04:50:44;55.7;;;33.6;;
41229;SDS011;26964;50.428;19.218;2024-03-23T04:51:44;52.3;;;34.0;;
41229;SDS011;26964;50.428;19.218;2024-03-23T04:52:44;51.5;;;33.5;;
41229;SDS011;26964;50.428;19.218;2024-03-23T04:53:44;51.7;;;33.5;;
41229;SDS011;26964;50.428;19.218;2024-03-23T04:54:44;54.3;;;34.2;;
41229;SDS011;26964;50.428;19.218;2024-03-23T04:55:44;55.5;;;34.8;;
41229;SDS011;26964;50.428;19.218;2024-03-23T04:56:44;53.0;;;34.5;;
41229;SDS011;26964;50.428;19.218;2024-03-23T04:57:44;49.8;;;33.2;;
41229;SDS011;26964;50.428;19.218;2024-03-23T04:58:45;57.7;;;35.8;;
41229;SDS011;26964;50.428;19.218;2024-03-23T04:59:44;53.9;;;34.3;;
41229;SDS011;26964;50.428;19.218;2024-03-23T05:00:44;52.0;;;34.2;;
41229;SDS011;26964;50.428;19.218;2024-03-23T05:01:44;53.5;;;33.5;;
41229;SDS011;26964;50.428;19.218;2024-03-23T05:02:44;55.0;;;35.7;;
41229;SDS011;26964;50.428;19.218;2024-03-23T05:03:44;50.6;;;32.6;;
41229;SDS011;26964;50.428;19.218;2024-03-23T05:04:44;52.7;;;35.5;;
41229;SDS011;26964;50.428;19.218;2024-03-23T05:05:44;52.3;;;35.1;;
41229;SDS011;26964;50.428;19.218;2024-03-23T05:06:44;52.3;;;34.4;;
41229;SDS011;26964;50.428;19.218;2024-03-23T05:07:44;52.5;;;35.7;;
41229;SDS011;26964;50.428;19.218;2024-03-23T05:08:44;54.8;;;34.9;;
41229;SDS011;26964;50.428;19.218;2024-03-23T05:09:44;52.5;;;34.6;;
41229;SDS011;26964;50.428;19.218;2024-03-23T05:10:44;51.5;;;34.2;;
41229;SDS011;26964;50.428;19.218;2024-03-23T05:11:44;51.4;;;35.4;;
41229;SDS011;26964;50.428;19.218;2024-03-23T05:12:44;54.9;;;35.1;;
41229;SDS011;26964;50.428;19.218;2024-03-23T05:13:45;52.8;;;34.2;;
41229;SDS011;26964;50.428;19.218;2024-03-23T05:14:44;49.7;;;33.7;;
41229;SDS011;26964;50.428;19.218;2024-03-23T05:15:44;50.5;;;33.6;;
41229;SDS011;26964;50.428;19.218;2024-03-23T05:16:44;51.6;;;33.4;;
41229;SDS011;26964;50.428;19.218;2024-03-23T05:17:44;50.9;;;32.1;;
41229;SDS011;26964;50.428;19.218;2024-03-23T05:18:44;50.6;;;32.1;;
41229;SDS011;26964;50.428;19.218;2024-03-23T05:19:46;51.6;;;32.5;;
41229;SDS011;26964;50.428;19.218;2024-03-23T05:20:44;51.2;;;32.9;;
41229;SDS011;26964;50.428;19.218;2024-03-23T05:21:44;50.5;;;33.8;;
41229;SDS011;26964;50.428;19.218;2024-03-23T05:22:44;53.0;;;34.0;;
41229;SDS011;26964;50.428;19.218;2024-03-23T05:23:44;51.7;;;34.1;;
41229;SDS011;26964;50.428;19.218;2024-03-23T05:24:44;52.2;;;33.2;;
41229;SDS011;26964;50.428;19.218;2024-03-23T05:25:44;51.9;;;33.9;;
41229;SDS011;26964;50.428;19.218;2024-03-23T05:26:44;53.5;;;33.0;;
41229;SDS011;26964;50.428;19.218;2024-03-23T05:27:44;48.9;;;32.6;;
41229;SDS011;26964;50.428;19.218;2024-03-23T05:28:44;52.2;;;33.6;;
41229;SDS011;26964;50.428;19.218;2024-03-23T05:29:44;54.3;;;33.7;;
41229;SDS011;26964;50.428;19.218;2024-03-23T05:30:44;51.0;;;33.4;;
41229;SDS011;26964;50.428;19.218;2024-03-23T05:31:44;51.9;;;33.1;;
41229;SDS011;26964;50.428;19.218;2024-03-23T05:32:44;54.6;;;33.9;;
41229;SDS011;26964;50.428;19.218;2024-03-23T05:33:44;52.0;;;34.1;;
41229;SDS011;26964;50.428;19.218;2024-03-23T05:34:44;50.0;;;33.7;;
41229;SDS011;26964;50.428;19.218;2024-03-23T05:35:44;53.8;;;34.4;;
41229;SDS011;26964;50.428;19.218;2024-03-23T05:36:44;51.4;;;34.4;;
41229;SDS011;26964;50.428;19.218;2024-03-23T05:37:44;55.7;;;35.6;;
41229;SDS011;26964;50.428;19.218;2024-03-23T05:38:44;51.8;;;34.5;;
41229;SDS011;26964;50.428;19.218;2024-03-23T05:39:44;50.0;;;33.5;;
41229;SDS011;26964;50.428;19.218;2024-03-23T05:41:44;58.5;;;36.9;;
41229;SDS011;26964;50.428;19.218;2024-03-23T05:42:44;51.3;;;33.7;;
41229;SDS011;26964;50.428;19.218;2024-03-23T05:43:44;53.4;;;35.0;;
41229;SDS011;26964;50.428;19.218;2024-03-23T05:44:44;50.9;;;33.9;;
41229;SDS011;26964;50.428;19.218;2024-03-23T05:45:44;53.7;;;33.3;;
41229;SDS011;26964;50.428;19.218;2024-03-23T05:46:44;50.1;;;33.9;;
41229;SDS011;26964;50.428;19.218;2024-03-23T05:47:44;55.9;;;35.5;;
41229;SDS011;26964;50.428;19.218;2024-03-23T05:48:44;57.4;;;36.7;;
41229;SDS011;26964;50.428;19.218;2024-03-23T05:49:44;55.7;;;35.6;;
41229;SDS011;26964;50.428;19.218;2024-03-23T05:50:44;58.5;;;36.2;;
41229;SDS011;26964;50.428;19.218;2024-03-23T05:51:44;55.8;;;35.3;;
41229;SDS011;26964;50.428;19.218;2024-03-23T05:52:44;54.4;;;34.4;;
41229;SDS011;26964;50.428;19.218;2024-03-23T05:53:44;57.0;;;35.3;;
41229;SDS011;26964;50.428;19.218;2024-03-23T05:54:44;57.4;;;34.6;;
41229;SDS011;26964;50.428;19.218;2024-03-23T05:55:44;51.6;;;34.8;;
41229;SDS011;26964;50.428;19.218;2024-03-23T05:56:44;54.3;;;35.5;;
41229;SDS011;26964;50.428;19.218;2024-03-23T05:57:44;53.2;;;35.0;;
41229;SDS011;26964;50.428;19.218;2024-03-23T05:58:44;55.7;;;35.8;;
41229;SDS011;26964;50.428;19.218;2024-03-23T05:59:44;50.9;;;34.2;;
41229;SDS011;26964;50.428;19.218;2024-03-23T06:00:44;53.0;;;35.0;;
41229;SDS011;26964;50.428;19.218;2024-03-23T06:01:46;53.0;;;34.1;;
41229;SDS011;26964;50.428;19.218;2024-03-23T06:02:44;51.2;;;35.3;;
41229;SDS011;26964;50.428;19.218;2024-03-23T06:03:44;56.6;;;36.2;;
41229;SDS011;26964;50.428;19.218;2024-03-23T06:04:45;54.4;;;36.0;;
41229;SDS011;26964;50.428;19.218;2024-03-23T06:05:44;50.7;;;33.9;;
41229;SDS011;26964;50.428;19.218;2024-03-23T06:06:44;52.5;;;34.1;;
41229;SDS011;26964;50.428;19.218;2024-03-23T06:07:44;52.4;;;33.5;;
41229;SDS011;26964;50.428;19.218;2024-03-23T06:08:44;49.6;;;32.9;;
41229;SDS011;26964;50.428;19.218;2024-03-23T06:09:44;51.6;;;33.1;;
41229;SDS011;26964;50.428;19.218;2024-03-23T06:10:44;51.9;;;33.4;;
41229;SDS011;26964;50.428;19.218;2024-03-23T06:11:44;49.0;;;33.3;;
41229;SDS011;26964;50.428;19.218;2024-03-23T06:12:45;51.2;;;33.6;;
41229;SDS011;26964;50.428;19.218;2024-03-23T06:13:44;55.9;;;34.0;;
41229;SDS011;26964;50.428;19.218;2024-03-23T06:14:44;55.1;;;35.4;;
41229;SDS011;26964;50.428;19.218;2024-03-23T06:15:44;54.5;;;35.0;;
41229;SDS011;26964;50.428;19.218;2024-03-23T06:16:44;58.1;;;36.7;;
41229;SDS011;26964;50.428;19.218;2024-03-23T06:17:44;57.7;;;35.5;;
41229;SDS011;26964;50.428;19.218;2024-03-23T06:18:44;52.8;;;35.4;;
41229;SDS011;26964;50.428;19.218;2024-03-23T06:19:44;54.4;;;35.8;;
41229;SDS011;26964;50.428;19.218;2024-03-23T06:20:44;51.7;;;33.1;;
41229;SDS011;26964;50.428;19.218;2024-03-23T06:21:44;48.1;;;31.6;;
41229;SDS011;26964;50.428;19.218;2024-03-23T06:22:47;46.9;;;31.2;;
41229;SDS011;26964;50.428;19.218;2024-03-23T06:23:44;46.0;;;29.7;;
41229;SDS011;26964;50.428;19.218;2024-03-23T06:24:44;43.2;;;28.3;;
41229;SDS011;26964;50.428;19.218;2024-03-23T06:25:44;41.0;;;27.9;;
41229;SDS011;26964;50.428;19.218;2024-03-23T06:26:44;42.5;;;28.7;;
41229;SDS011;26964;50.428;19.218;2024-03-23T06:27:44;41.2;;;26.6;;
41229;SDS011;26964;50.428;19.218;2024-03-23T06:28:44;46.5;;;29.2;;
41229;SDS011;26964;50.428;19.218;2024-03-23T06:29:44;44.4;;;28.5;;
41229;SDS011;26964;50.428;19.218;2024-03-23T06:30:44;47.1;;;31.3;;
41229;SDS011;26964;50.428;19.218;2024-03-23T06:31:44;49.2;;;32.9;;
41229;SDS011;26964;50.428;19.218;2024-03-23T06:32:44;50.3;;;33.9;;
41229;SDS011;26964;50.428;19.218;2024-03-23T06:33:44;49.4;;;31.0;;
41229;SDS011;26964;50.428;19.218;2024-03-23T06:34:44;43.8;;;29.2;;
41229;SDS011;26964;50.428;19.218;2024-03-23T06:36:44;39.0;;;27.0;;
41229;SDS011;26964;50.428;19.218;2024-03-23T06:37:44;38.8;;;26.0;;
41229;SDS011;26964;50.428;19.218;2024-03-23T06:38:44;39.8;;;26.4;;
41229;SDS011;26964;50.428;19.218;2024-03-23T06:39:45;40.0;;;27.3;;
41229;SDS011;26964;50.428;19.218;2024-03-23T06:40:45;36.7;;;25.5;;
41229;SDS011;26964;50.428;19.218;2024-03-23T06:41:51;38.7;;;27.0;;
41229;SDS011;26964;50.428;19.218;2024-03-23T06:42:45;36.2;;;25.4;;
41229;SDS011;26964;50.428;19.218;2024-03-23T06:43:44;37.9;;;26.3;;
41229;SDS011;26964;50.428;19.218;2024-03-23T06:44:44;42.1;;;26.2;;
41229;SDS011;26964;50.428;19.218;2024-03-23T06:45:44;38.2;;;25.6;;
41229;SDS011;26964;50.428;19.218;2024-03-23T06:46:44;35.2;;;25.8;;
41229;SDS011;26964;50.428;19.218;2024-03-23T06:47:44;33.5;;;24.7;;
41229;SDS011;26964;50.428;19.218;2024-03-23T06:48:44;36.2;;;25.2;;
41229;SDS011;26964;50.428;19.218;2024-03-23T06:49:44;36.2;;;24.4;;
41229;SDS011;26964;50.428;19.218;2024-03-23T06:50:44;36.6;;;25.5;;
41229;SDS011;26964;50.428;19.218;2024-03-23T06:51:44;37.3;;;25.8;;
41229;SDS011;26964;50.428;19.218;2024-03-23T06:52:44;42.0;;;27.4;;
41229;SDS011;26964;50.428;19.218;2024-03-23T06:53:44;42.0;;;28.1;;
41229;SDS011;26964;50.428;19.218;2024-03-23T06:54:44;41.0;;;28.6;;
41229;SDS011;26964;50.428;19.218;2024-03-23T06:55:44;47.7;;;31.3;;
41229;SDS011;26964;50.428;19.218;2024-03-23T06:56:44;44.9;;;31.1;;
41229;SDS011;26964;50.428;19.218;2024-03-23T06:57:46;47.5;;;31.4;;
41229;SDS011;26964;50.428;19.218;2024-03-23T06:58:44;49.7;;;33.2;;
41229;SDS011;26964;50.428;19.218;2024-03-23T06:59:44;51.0;;;32.8;;